• Join FlightAware (Why Join?)
  • Login
  • US Flag 
11:50AM EST


 

Airport Tracker/Info


-or-


 

Live Flight TrackerFlight Track Log ✈ SWA3321 ✈ 16-Apr-2013 ✈ KMCO - KMHT

Flight Track Log - Related Links

Times and Time Zones

All times are in EDT time to prevent confusion due to time zone crossing. See the SWA3321 flight status page for this flight to view local times or setup timezone preferences in your user account.

Time Position Orientation Groundspeed Altitude Reporting Facility
EDT Latitude Longitude Course Direction KTS MPH feet Rate Location/Type
11:38AM 28.4333 -81.3000 348° North 162 186 600  Level Orlando TRACON
11:39AM 28.5000 -81.3167 348° North 232 267 3,100 2,100 Climbing Orlando TRACON
11:40AM 28.5667 -81.3333 348° North 263 303 5,300 2,520 Climbing Orlando TRACON
11:41AM 28.6500 -81.3500 350° North 278 320 8,400 2,400 Climbing Orlando TRACON
11:43AM 28.8483 -81.3661 356° North 322 371 13,500 2,400 Climbing Jacksonville Center
11:44AM 28.9528 -81.3764 355° North 351 404 16,200 2,700 Climbing Jacksonville Center
11:45AM 29.0594 -81.3842 356° North 371 427 18,900 2,580 Climbing Jacksonville Center
11:46AM 29.1700 -81.3967 354° North 381 438 21,400 2,400 Climbing Jacksonville Center
11:47AM 29.2831 -81.4092 354° North 393 452 23,700 2,160 Climbing Jacksonville Center
11:48AM 29.4000 -81.4194 356° North 404 465 25,800 1,800 Climbing Jacksonville Center
11:50AM 29.6364 -81.4708 349° North 428 493 29,200 1,860 Climbing Jacksonville Center
11:51AM 29.7558 -81.5075 345° North 433 498 31,400 1,860 Climbing Jacksonville Center
11:52AM 29.8753 -81.5439 345° North 439 505 33,000 1,020 Climbing Jacksonville Center
11:53AM 29.9925 -81.5758 347° North 439 505 33,500 1,140 Climbing Jacksonville Center
11:54AM 30.1114 -81.5694 North 427 491 35,300 1,500 Climbing Jacksonville Center
11:55AM 30.2367 -81.5558 North 427 491 36,600 1,260 Climbing Jacksonville Center
11:56AM 30.3594 -81.5397 North 432 497 37,900 1,200 Climbing Jacksonville Center
11:57AM 30.4783 -81.5258 North 432 497 39,000 540 Climbing Jacksonville Center
11:58AM 30.6014 -81.5097 North 437 503 39,000  Level Jacksonville Center
11:59AM 30.7183 -81.5008 North 437 503 39,000  Level Jacksonville Center
12:00PM 30.8392 -81.4869 North 437 503 39,000  Level Jacksonville Center
12:01PM 30.9558 -81.4731 North 432 497 39,000  Level Jacksonville Center
12:02PM 31.0642 -81.4472 12° North 426 490 39,000  Level Jacksonville Center
12:03PM 31.1764 -81.3894 24° Northeast 442 509 39,000  Level Jacksonville Center
12:04PM 31.2925 -81.3292 24° Northeast 442 509 39,000  Level Jacksonville Center
12:05PM 31.4003 -81.2667 26° Northeast 429 494 39,000  Level Jacksonville Center
12:06PM 31.5247 -81.1964 26° Northeast 441 507 39,000  Level Jacksonville Center
12:07PM 31.6367 -81.1356 25° Northeast 441 507 39,000  Level Jacksonville Center
12:08PM 31.7361 -81.0800 25° Northeast 441 507 39,000  Level Jacksonville Center
12:09PM 31.8644 -81.0089 25° Northeast 441 507 39,000  Level Jacksonville Center
12:10PM 31.9681 -80.9531 25° Northeast 441 507 39,000  Level Jacksonville Center
12:11PM 32.0922 -80.8842 25° Northeast 441 507 39,000  Level Jacksonville Center
12:12PM 32.2081 -80.8228 24° Northeast 446 513 39,000  Level Jacksonville Center
12:13PM 32.3114 -80.7639 26° Northeast 441 507 39,000  Level Jacksonville Center
12:14PM 32.4333 -80.6919 26° Northeast 441 507 39,000  Level Jacksonville Center
12:15PM 32.5492 -80.6278 25° Northeast 441 507 39,000  Level Jacksonville Center
12:16PM 32.6586 -80.5658 25° Northeast 441 507 39,000  Level Jacksonville Center
12:17PM 32.7744 -80.5011 25° Northeast 441 507 39,000  Level Jacksonville Center
12:18PM 32.8881 -80.4361 26° Northeast 441 507 39,000  Level Jacksonville Center
12:19PM 32.9933 -80.3764 25° Northeast 447 514 39,000  Level Jacksonville Center
12:20PM 33.1192 -80.3108 24° Northeast 449 517 39,000  Level Jacksonville Center
12:21PM 33.2203 -80.2508 26° Northeast 449 517 39,000  Level Jacksonville Center
12:22PM 33.3356 -80.1828 26° Northeast 454 522 39,000  Level Jacksonville Center
12:23PM 33.4450 -80.1197 26° Northeast 443 510 39,000  Level Jacksonville Center
12:24PM 33.5581 -80.0511 27° Northeast 443 510 39,000  Level Jacksonville Center
12:25PM 33.6714 -79.9878 25° Northeast 443 510 39,000  Level Jacksonville Center
12:26PM 33.7828 -79.9217 26° Northeast 438 504 39,000  Level Jacksonville Center
12:27PM 33.8981 -79.8550 26° Northeast 438 504 39,000  Level Jacksonville Center
12:28PM 34.0111 -79.7886 26° Northeast 438 504 39,000  Level Jacksonville Center
12:29PM 34.1242 -79.7194 27° Northeast 438 504 39,000  Level Jacksonville Center
12:31PM 34.3658 -79.5872 24° Northeast 457 526 39,000  Level Washington Center
12:32PM 34.4806 -79.5297 22° Northeast 445 512 39,000  Level Washington Center
12:33PM 34.5908 -79.4694 24° Northeast 440 506 39,000  Level Washington Center
12:34PM 34.7056 -79.4119 22° Northeast 440 506 39,000  Level Washington Center
12:35PM 34.8200 -79.3514 23° Northeast 440 506 39,000  Level Washington Center
12:36PM 34.9325 -79.2908 24° Northeast 440 506 39,000  Level Washington Center
12:37PM 35.0492 -79.2275 24° Northeast 445 512 39,000  Level Washington Center
12:38PM 35.1617 -79.1692 23° Northeast 445 512 39,000  Level Washington Center
12:39PM 35.2781 -79.1081 23° Northeast 445 512 39,000  Level Washington Center
12:40PM 35.3925 -79.0494 23° Northeast 445 512 39,000  Level Washington Center
12:41PM 35.5069 -78.9881 24° Northeast 445 512 39,000  Level Washington Center
12:42PM 35.6214 -78.9267 24° Northeast 445 512 39,000  Level Washington Center
12:43PM 35.7358 -78.8622 25° Northeast 445 512 39,000  Level Washington Center
12:44PM 35.8544 -78.8006 23° Northeast 445 512 39,000  Level Washington Center
12:45PM 35.9611 -78.7100 34° Northeast 451 519 39,000  Level Washington Center
12:46PM 36.0656 -78.6189 35° Northeast 457 526 39,000  Level Washington Center
12:47PM 36.1703 -78.5278 35° Northeast 457 526 39,000  Level Washington Center
12:48PM 36.2747 -78.4339 36° Northeast 457 526 39,000  Level Washington Center
12:49PM 36.3600 -78.3569 36° Northeast 457 526 39,000  Level Washington Center
12:50PM 36.4642 -78.2675 35° Northeast 457 526 39,000  Level Washington Center
12:51PM 36.5750 -78.1653 37° Northeast 457 526 39,000  Level Washington Center
12:52PM 36.6856 -78.0656 36° Northeast 452 520 39,000  Level Washington Center
12:53PM 36.7769 -77.9803 37° Northeast 452 520 39,000  Level Washington Center
12:54PM 36.8728 -77.8819 39° Northeast 452 520 39,000  Level Washington Center
12:55PM 36.9503 -77.7517 53° Northeast 452 520 39,000  Level Washington Center
12:56PM 37.0297 -77.6239 52° Northeast 458 527 39,000  Level Washington Center
12:57PM 37.1069 -77.4931 53° Northeast 464 534 39,000  Level Washington Center
12:58PM 37.1842 -77.3619 53° Northeast 464 534 39,000  Level Washington Center
12:59PM 37.2589 -77.2333 54° Northeast 464 534 39,000  Level Washington Center
01:00PM 37.3461 -77.1069 49° Northeast 475 547 39,000  Level Washington Center
01:01PM 37.4639 -77.0153 32° Northeast 459 528 39,000  Level Washington Center
01:02PM 37.5775 -76.9333 30° Northeast 454 522 39,000  Level Washington Center
01:03PM 37.6828 -76.8539 31° Northeast 449 517 39,000  Level Washington Center
01:04PM 37.7878 -76.7742 31° Northeast 449 517 39,000  Level Washington Center
01:05PM 37.8950 -76.6944 30° Northeast 449 517 39,000  Level Washington Center
01:06PM 38.0042 -76.6142 30° Northeast 449 517 39,000  Level Washington Center
01:07PM 38.1111 -76.5311 31° Northeast 449 517 39,000  Level Washington Center
01:08PM 38.2181 -76.4533 30° Northeast 449 517 39,000  Level Washington Center
01:09PM 38.3228 -76.3672 33° Northeast 449 517 39,000  Level Washington Center
01:10PM 38.4172 -76.2781 36° Northeast 454 522 39,000  Level Washington Center
01:11PM 38.5200 -76.1861 35° Northeast 459 528 39,000  Level Washington Center
01:12PM 38.6247 -76.0914 35° Northeast 454 522 39,000  Level Washington Center
01:13PM 38.7250 -75.9961 37° Northeast 454 522 39,000  Level Washington Center
01:14PM 38.8275 -75.9033 35° Northeast 454 522 39,000  Level Washington Center
01:15PM 38.9278 -75.8050 37° Northeast 454 522 39,000  Level Washington Center
01:16PM 39.0278 -75.7119 36° Northeast 454 522 39,000  Level Washington Center
01:17PM 39.1281 -75.6183 36° Northeast 454 522 39,000  Level Washington Center
01:18PM 39.2300 -75.5192 37° Northeast 454 522 39,000  Level Washington Center
01:19PM 39.3281 -75.4333 34° Northeast 448 516 39,000  Level Washington Center
01:20PM 39.4300 -75.3417 35° Northeast 448 516 39,000  Level Washington Center
01:21PM 39.5297 -75.2472 36° Northeast 442 509 39,000  Level Washington Center
01:24PM 39.7614 -75.0350 35° Northeast 431 496 39,000  Level New York Center
01:25PM 39.8514 -74.9619 32° Northeast 439 505 39,000  Level New York Center
01:26PM 39.9661 -74.8444 38° Northeast 456 525 39,000  Level New York Center
01:27PM 40.0658 -74.7906 22° Northeast 425 489 39,000  Level New York Center
01:28PM 40.1797 -74.7536 14° North 412 474 39,000  Level New York Center
01:29PM 40.2939 -74.7086 17° North 425 489 39,000  Level New York Center
01:30PM 40.4097 -74.6689 15° North 425 489 39,000  Level New York Center
01:31PM 40.5214 -74.6286 15° North 425 489 39,000  Level New York Center
01:32PM 40.6375 -74.5833 16° North 425 489 39,000  Level New York Center
01:34PM 40.9167 -74.4836 15° North 436 502 39,000  Level Boston Center
01:35PM 41.0194 -74.4483 15° North 431 496 39,000  Level Boston Center
01:36PM 41.1453 -74.4053 14° North 422 486 39,000 -60 Level Boston Center
01:37PM 41.2567 -74.3619 16° North 422 486 38,900 -600 Descending Boston Center
01:38PM 41.3697 -74.3211 15° North 422 486 37,900 -1,020 Descending Boston Center
01:39PM 41.4808 -74.2828 14° North 416 479 36,900 -900 Descending Boston Center
01:40PM 41.5839 -74.2275 22° Northeast 427 491 36,100 -960 Descending Boston Center
01:41PM 41.6714 -74.0936 49° Northeast 437 503 35,100 -960 Descending Boston Center
01:42PM 41.7567 -73.9594 50° Northeast 459 528 34,200 -960 Descending Boston Center
01:43PM 41.8397 -73.8278 50° Northeast 460 529 33,200 -1,020 Descending Boston Center
01:44PM 41.9267 -73.6875 50° Northeast 465 535 32,300 -1,020 Descending Boston Center
01:45PM 42.0156 -73.5494 49° Northeast 477 549 31,300 -1,080 Descending Boston Center
01:46PM 42.1044 -73.4083 50° Northeast 482 555 30,200 -1,080 Descending Boston Center
01:47PM 42.1847 -73.2806 50° Northeast 469 540 29,200 -960 Descending Boston Center
01:48PM 42.2689 -73.1472 50° Northeast 457 526 28,200 -1,680 Descending Boston Center
01:49PM 42.3678 -72.9853 50° Northeast 452 520 25,600 -2,400 Descending Boston Center
01:50PM 42.4433 -72.8622 50° Northeast 446 513 23,500 -2,100 Descending Boston Center
01:51PM 42.5167 -72.7414 51° Northeast 432 497 21,400 -2,280 Descending Boston Center
01:52PM 42.5942 -72.6150 50° Northeast 406 467 19,000 -2,280 Descending Boston Center
01:53PM 42.6422 -72.4739 65° Northeast 396 456 16,900 -2,280 Descending Boston Center
01:54PM 42.6881 -72.3356 66° East 396 456 14,600 -2,400 Descending Boston Center
01:55PM 42.7314 -72.1969 67° East 396 456 12,300 -2,100 Descending Boston Center
01:56PM 42.7769 -72.0611 65° Northeast 391 450 10,400 -1,620 Descending Boston Center
01:57PM 42.8161 -71.9419 66° East 358 412 9,100 -1,320 Descending Boston Center
01:58PM 42.8342 -71.8200 79° East 332 382 7,800 -1,440 Descending Boston Center
01:59PM 42.8733 -71.7064 65° Northeast 320 368 6,300 -1,200 Descending Boston Center
02:00PM 42.9247 -71.6064 55° Northeast 315 362 5,400 -900 Descending Boston Center
02:01PM 42.9803 -71.5319 44° Northeast 285 328 4,600 -1,080 Descending Boston Center
02:02PM 43.0236 -71.4631 49° Northeast 250 288 3,400 -1,140 Descending Boston Center
02:03PM 43.0064 -71.4039 112° Southeast 185 213 2,400 -1,200 Descending Boston Center
02:04PM 42.9728 -71.3958 170° South 103 119 1,100 -1,020 Descending Boston Center
02:05PM 42.9481 -71.4275 223° Southwest 86 99 400 3,900 Descending Boston Center
02:06PM 42.9272 -71.4278 181° South 86 99 9,000 4,260 Climbing Boston Center
02:07PM 42.9067 -71.4367 198° South 86 99 9,000  Level Boston Center
02:08PM 42.8858 -71.4425 192° South 86 99 9,000  Level Boston Center
02:09PM 42.8650 -71.4514 197° South 86 99 9,000  Level Boston Center
02:11PM 42.9328 -71.4358 16° North  Level Estimated
02:18PM 42.9328 -71.4358 316° Northwest  Level Estimated
02:19PM 42.9328 -71.4358 316° Northwest  Level Estimated
02:20PM 42.9328 -71.4358 316° Northwest  Level Estimated